Time;durP1;ratioP1;P1;durP2;ratioP2;P2;SDS_P1;SDS_P2;PMS_P1;PMS_P2;Temp;Humidity;BMP_temperature;BMP_pressure;BME280_temperature;BME280_humidity;BME280_pressure;Samples;Min_cycle;Max_cycle;Signal;HPM_P1;HPM_P2
2022/03/13 00:00:53;;;;;;;0.40;0.40;;;1.80;60.20;;;;;;5074727;28;20416;-64
2022/03/13 00:03:41;;;;;;;1.80;1.70;;;1.80;60.50;;;;;;5074595;28;20829;-64
2022/03/13 00:06:33;;;;;;;0.40;0.40;;;1.80;60.70;;;;;;5074435;28;21011;-64
2022/03/13 00:09:22;;;;;;;0.40;0.40;;;1.70;60.70;;;;;;5073673;28;20928;-64
2022/03/13 00:12:11;;;;;;;0.40;0.40;;;1.70;60.50;;;;;;5072583;28;20478;-64
2022/03/13 00:15:02;;;;;;;2.77;2.67;;;1.70;60.70;;;;;;5073584;28;20506;-64
2022/03/13 00:17:49;;;;;;;0.40;0.40;;;1.70;60.60;;;;;;5073559;28;20419;-64
2022/03/13 00:20:38;;;;;;;0.50;0.50;;;1.60;60.70;;;;;;5073615;28;20420;-64
2022/03/13 00:23:25;;;;;;;0.70;0.70;;;1.60;60.70;;;;;;5073807;28;20610;-64
2022/03/13 00:26:14;;;;;;;0.40;0.40;;;1.50;60.70;;;;;;5076273;28;20424;-63
2022/03/13 00:29:01;;;;;;;0.50;0.50;;;1.50;60.60;;;;;;5075690;28;20431;-64
2022/03/13 00:31:48;;;;;;;0.40;0.40;;;1.50;60.60;;;;;;5076930;28;20439;-64
2022/03/13 00:34:36;;;;;;;0.40;0.40;;;1.40;61.20;;;;;;5075009;28;20491;-64
2022/03/13 00:37:24;;;;;;;0.40;0.40;;;1.40;60.90;;;;;;5075504;28;20424;-64
2022/03/13 00:40:13;;;;;;;0.40;0.40;;;1.40;60.80;;;;;;5077810;28;20501;-64
2022/03/13 00:43:00;;;;;;;0.40;0.40;;;1.40;60.90;;;;;;5077808;28;20562;-63
2022/03/13 00:45:47;;;;;;;0.40;0.40;;;1.40;60.60;;;;;;5085013;28;20433;-66
2022/03/13 00:48:34;;;;;;;0.40;0.40;;;1.30;60.70;;;;;;5081354;28;20932;-66
2022/03/13 00:51:21;;;;;;;0.87;0.87;;;1.30;60.60;;;;;;5078891;28;20423;-63
2022/03/13 00:54:09;;;;;;;0.40;0.40;;;1.30;60.70;;;;;;5077334;28;20423;-64
2022/03/13 00:56:56;;;;;;;0.40;0.40;;;1.30;60.60;;;;;;5078313;28;20438;-64
2022/03/13 00:59:43;;;;;;;0.40;0.40;;;1.30;60.40;;;;;;5077145;28;20507;-64
2022/03/13 01:02:30;;;;;;;0.40;0.40;;;1.30;60.50;;;;;;5076318;28;20830;-64
2022/03/13 01:05:23;;;;;;;0.40;0.40;;;1.30;60.50;;;;;;5077365;28;20427;-64
2022/03/13 01:08:10;;;;;;;0.40;0.40;;;1.30;60.40;;;;;;5077338;28;20415;-64
2022/03/13 01:11:00;;;;;;;0.40;0.40;;;1.30;60.40;;;;;;5077859;28;20416;-63
2022/03/13 01:13:48;;;;;;;0.60;0.60;;;1.30;60.50;;;;;;5077631;28;20465;-64
2022/03/13 01:16:37;;;;;;;0.40;0.40;;;1.20;60.50;;;;;;5075679;28;20801;-64
2022/03/13 01:19:24;;;;;;;1.53;1.53;;;1.40;60.90;;;;;;5074604;28;20952;-64
2022/03/13 01:22:12;;;;;;;0.50;0.50;;;1.20;60.90;;;;;;5075605;28;20455;-64
2022/03/13 01:24:59;;;;;;;0.40;0.40;;;1.10;60.70;;;;;;5080145;28;20514;-64
2022/03/13 01:27:47;;;;;;;0.60;0.60;;;1.10;60.70;;;;;;5080587;28;20474;-64
2022/03/13 01:30:34;;;;;;;0.40;0.40;;;1.00;60.90;;;;;;5079748;28;20495;-66
2022/03/13 01:33:21;;;;;;;0.40;0.40;;;1.00;61.00;;;;;;5079492;28;20466;-63
2022/03/13 01:36:08;;;;;;;0.40;0.40;;;0.90;61.50;;;;;;5080794;28;20424;-64
2022/03/13 01:38:57;;;;;;;0.40;0.40;;;0.90;61.60;;;;;;5078004;28;20419;-65
2022/03/13 01:41:44;;;;;;;0.40;0.40;;;0.90;61.80;;;;;;5078580;28;20454;-64
2022/03/13 01:44:32;;;;;;;0.50;0.50;;;0.80;61.80;;;;;;5079476;28;20467;-65
2022/03/13 01:47:19;;;;;;;0.40;0.40;;;0.70;61.90;;;;;;5078912;28;20416;-65
2022/03/13 01:50:09;;;;;;;0.67;0.67;;;0.70;62.10;;;;;;5080883;28;20426;-64
2022/03/13 01:52:56;;;;;;;0.40;0.40;;;0.70;62.50;;;;;;5082315;28;20455;-64
2022/03/13 01:55:43;;;;;;;0.40;0.40;;;0.60;62.80;;;;;;5082403;28;20478;-66
2022/03/13 01:58:30;;;;;;;0.40;0.40;;;0.60;62.90;;;;;;5062434;28;20417;-64
2022/03/13 02:01:19;;;;;;;0.40;0.40;;;0.50;63.90;;;;;;5061917;28;20514;-64
2022/03/13 02:04:06;;;;;;;0.40;0.40;;;0.50;64.00;;;;;;5058361;28;20469;-63
2022/03/13 02:06:55;;;;;;;0.50;0.50;;;0.50;64.70;;;;;;5071716;28;21014;-64
2022/03/13 02:09:42;;;;;;;0.40;0.40;;;0.30;64.80;;;;;;5079167;28;20436;-65
2022/03/13 02:12:29;;;;;;;0.50;0.50;;;0.30;64.30;;;;;;5104929;22;20521;-70
2022/03/13 02:15:16;;;;;;;0.50;0.50;;;0.30;64.70;;;;;;5074028;28;20424;-70
2022/03/13 02:18:06;;;;;;;0.50;0.50;;;0.40;64.80;;;;;;5076738;28;20419;-69
2022/03/13 02:20:53;;;;;;;0.50;0.50;;;0.30;64.70;;;;;;5076904;28;20966;-69
2022/03/13 02:23:42;;;;;;;0.50;0.50;;;0.30;64.60;;;;;;5075912;28;20459;-69
2022/03/13 02:26:33;;;;;;;0.50;0.50;;;0.20;64.80;;;;;;5077318;28;20424;-70
2022/03/13 02:29:20;;;;;;;1.23;1.23;;;0.20;65.00;;;;;;5077432;28;20853;-69
2022/03/13 02:32:08;;;;;;;0.50;0.50;;;0.20;65.10;;;;;;5077371;28;20455;-70
2022/03/13 02:34:56;;;;;;;0.80;0.80;;;0.20;65.20;;;;;;5075602;28;20952;-70
2022/03/13 02:37:43;;;;;;;0.50;0.50;;;0.10;64.90;;;;;;5076933;28;20430;-70
2022/03/13 02:40:31;;;;;;;0.77;0.77;;;0.10;64.90;;;;;;5077137;28;20726;-70
2022/03/13 02:43:18;;;;;;;0.50;0.50;;;0.10;65.20;;;;;;5076727;28;20446;-70
2022/03/13 02:46:18;;;;;;;0.50;0.50;;;0.10;65.20;;;;;;5077973;28;20428;-70
2022/03/13 02:49:05;;;;;;;0.50;0.50;;;0.00;65.80;;;;;;5077191;28;20427;-70
2022/03/13 02:51:54;;;;;;;0.50;0.50;;;0.00;66.40;;;;;;5077501;28;20455;-69
2022/03/13 02:54:41;;;;;;;0.70;0.70;;;-0.10;66.10;;;;;;5077150;28;20770;-70
2022/03/13 02:57:29;;;;;;;0.50;0.50;;;-0.10;66.20;;;;;;5077833;28;20424;-70
2022/03/13 03:00:17;;;;;;;0.50;0.50;;;-0.10;66.60;;;;;;5076089;28;20477;-70
2022/03/13 03:03:04;;;;;;;0.50;0.50;;;-0.10;66.60;;;;;;5075001;28;20813;-69
2022/03/13 03:05:52;;;;;;;1.73;1.63;;;-0.10;66.60;;;;;;5076344;28;20420;-70
2022/03/13 03:08:39;;;;;;;0.50;0.50;;;-0.20;66.60;;;;;;5076852;28;20928;-70
2022/03/13 03:11:26;;;;;;;0.50;0.50;;;-0.10;67.00;;;;;;5076192;28;20423;-70
2022/03/13 03:14:15;;;;;;;0.50;0.50;;;-0.20;67.00;;;;;;5076516;28;20428;-70
2022/03/13 03:17:03;;;;;;;0.50;0.50;;;-0.20;67.30;;;;;;5076057;28;20818;-70
2022/03/13 03:19:50;;;;;;;0.50;0.50;;;-0.20;67.80;;;;;;5075121;28;20428;-69
2022/03/13 03:22:37;;;;;;;0.50;0.50;;;-0.20;68.10;;;;;;5075358;28;20448;-70
2022/03/13 03:25:26;;;;;;;0.50;0.50;;;-0.20;68.20;;;;;;5075217;28;20552;-69
2022/03/13 03:28:17;;;;;;;0.47;0.47;;;-0.30;68.00;;;;;;5075697;28;20479;-69
2022/03/13 03:31:05;;;;;;;0.50;0.50;;;-0.20;68.40;;;;;;5076415;28;20969;-69
2022/03/13 03:33:52;;;;;;;0.50;0.50;;;-0.30;68.00;;;;;;5075796;28;20454;-69
2022/03/13 03:36:45;;;;;;;0.50;0.50;;;-0.30;68.00;;;;;;5075820;28;20422;-69
2022/03/13 03:39:33;;;;;;;0.40;0.40;;;-0.40;67.50;;;;;;5075241;28;20430;-69
2022/03/13 03:42:19;;;;;;;0.50;0.50;;;-0.40;67.90;;;;;;5074839;28;20451;-69
2022/03/13 03:45:08;;;;;;;0.50;0.50;;;-0.40;68.80;;;;;;5074036;28;20600;-69
2022/03/13 03:47:56;;;;;;;0.50;0.50;;;-0.40;68.00;;;;;;5074329;28;20860;-69
2022/03/13 03:50:43;;;;;;;0.47;0.47;;;-0.40;67.40;;;;;;5074187;28;20432;-69
2022/03/13 03:53:30;;;;;;;0.50;0.50;;;-0.50;68.20;;;;;;5073252;28;20486;-69
2022/03/13 03:56:17;;;;;;;0.50;0.50;;;-0.40;67.70;;;;;;5072754;28;20436;-69
2022/03/13 03:59:04;;;;;;;0.50;0.50;;;-0.30;68.10;;;;;;5053723;28;20417;-69
2022/03/13 04:01:51;;;;;;;0.50;0.50;;;-0.50;68.20;;;;;;5054016;28;20448;-71
2022/03/13 04:04:40;;;;;;;0.50;0.50;;;-0.50;68.30;;;;;;5053299;28;20465;-69
2022/03/13 04:07:26;;;;;;;0.50;0.50;;;-0.40;68.70;;;;;;5053804;28;20510;-70
2022/03/13 04:10:13;;;;;;;0.50;0.50;;;-0.50;68.70;;;;;;5053470;28;20963;-72
2022/03/13 04:13:01;;;;;;;0.90;0.90;;;-0.50;68.70;;;;;;5052665;28;20465;-70
2022/03/13 04:15:48;;;;;;;0.40;0.40;;;-0.50;68.90;;;;;;5054174;28;20443;-70
2022/03/13 04:18:36;;;;;;;0.50;0.50;;;-0.50;68.80;;;;;;5054418;28;20530;-70
2022/03/13 04:21:24;;;;;;;0.50;0.50;;;-0.50;69.00;;;;;;5052341;28;20429;-70
2022/03/13 04:24:12;;;;;;;0.50;0.50;;;-0.60;69.20;;;;;;5053795;28;20464;-70
2022/03/13 04:26:59;;;;;;;0.50;0.50;;;-0.60;69.60;;;;;;5054137;28;20778;-70
2022/03/13 04:29:46;;;;;;;0.50;0.50;;;-0.60;69.60;;;;;;5053881;28;20425;-69
2022/03/13 04:32:33;;;;;;;2.40;2.20;;;-0.60;70.00;;;;;;5053265;28;20538;-69
2022/03/13 04:35:20;;;;;;;0.70;0.70;;;-0.60;70.00;;;;;;5053349;28;20441;-68
2022/03/13 04:38:08;;;;;;;0.50;0.50;;;-0.60;69.80;;;;;;5054320;28;20436;-69
2022/03/13 04:40:56;;;;;;;3.33;2.50;;;-0.70;70.00;;;;;;5053723;28;20428;-70
2022/03/13 04:43:43;;;;;;;0.60;0.60;;;-0.70;70.30;;;;;;5054193;28;20868;-70
2022/03/13 04:46:30;;;;;;;0.50;0.50;;;-0.70;70.20;;;;;;5053705;28;20441;-69
2022/03/13 04:49:17;;;;;;;0.50;0.50;;;-0.70;70.40;;;;;;5053432;28;20442;-69
2022/03/13 04:52:05;;;;;;;0.60;0.60;;;-0.70;70.40;;;;;;5053110;28;20455;-69
2022/03/13 04:54:53;;;;;;;0.50;0.50;;;-0.80;70.20;;;;;;5053704;28;21014;-70
2022/03/13 04:57:40;;;;;;;0.93;0.93;;;-0.80;70.50;;;;;;5052329;28;20425;-70
2022/03/13 05:00:27;;;;;;;0.50;0.50;;;-0.90;70.80;;;;;;5053852;28;20804;-70
2022/03/13 05:03:14;;;;;;;0.50;0.50;;;-0.90;70.70;;;;;;5052427;28;20445;-70
2022/03/13 05:06:05;;;;;;;0.60;0.60;;;-0.90;70.70;;;;;;5052913;28;20806;-70
2022/03/13 05:08:52;;;;;;;1.43;1.43;;;-1.00;70.70;;;;;;5052927;28;20435;-69
2022/03/13 05:11:40;;;;;;;0.50;0.50;;;-1.00;70.70;;;;;;5052929;28;20424;-69
2022/03/13 05:14:27;;;;;;;3.03;1.57;;;-1.00;71.20;;;;;;5052942;28;20417;-68
2022/03/13 05:17:14;;;;;;;0.50;0.50;;;-1.00;71.20;;;;;;5052614;28;20467;-71
2022/03/13 05:20:01;;;;;;;0.50;0.50;;;-0.90;72.60;;;;;;5053782;28;20968;-69
2022/03/13 05:22:48;;;;;;;1.20;1.20;;;-1.00;71.60;;;;;;5053092;28;20444;-69
2022/03/13 05:25:35;;;;;;;0.50;0.50;;;-0.90;71.30;;;;;;5053218;28;20475;-70
2022/03/13 05:28:23;;;;;;;0.50;0.50;;;-0.90;71.40;;;;;;5052654;28;20432;-69
2022/03/13 05:31:10;;;;;;;0.50;0.50;;;-0.90;71.40;;;;;;5052548;28;20425;-69
2022/03/13 05:33:57;;;;;;;0.50;0.50;;;-0.90;71.30;;;;;;5052646;28;20791;-69
2022/03/13 05:36:44;;;;;;;0.50;0.50;;;-0.90;71.50;;;;;;5047357;28;20432;-69
2022/03/13 05:39:31;;;;;;;0.50;0.50;;;-0.90;71.50;;;;;;5052591;28;20932;-69
2022/03/13 05:42:18;;;;;;;0.40;0.40;;;-0.90;71.50;;;;;;5052061;28;20448;-69
2022/03/13 05:45:10;;;;;;;0.50;0.50;;;-0.90;71.60;;;;;;5052968;28;20817;-70
2022/03/13 05:47:58;;;;;;;0.43;0.43;;;-0.80;71.70;;;;;;5053563;28;20428;-69
2022/03/13 05:50:46;;;;;;;0.50;0.50;;;-0.90;71.60;;;;;;5052275;28;20421;-69
2022/03/13 05:53:33;;;;;;;0.50;0.50;;;-0.80;71.60;;;;;;5052393;28;20453;-69
2022/03/13 05:56:20;;;;;;;0.50;0.50;;;-0.70;71.70;;;;;;5050283;28;20436;-70
2022/03/13 05:59:08;;;;;;;0.60;0.60;;;-0.80;71.60;;;;;;5050257;28;20954;-69
2022/03/13 06:01:57;;;;;;;4.00;3.70;;;-0.70;71.60;;;;;;5052381;28;20447;-69
2022/03/13 06:04:44;;;;;;;0.50;0.50;;;-0.70;71.40;;;;;;5052419;28;20542;-70
2022/03/13 06:07:32;;;;;;;0.50;0.50;;;-0.60;71.30;;;;;;5052487;28;20420;-70
2022/03/13 06:10:19;;;;;;;1.50;1.50;;;-0.60;71.00;;;;;;5057259;28;21015;-69
2022/03/13 06:13:06;;;;;;;0.40;0.40;;;-0.50;71.00;;;;;;5055774;28;20468;-69
2022/03/13 06:15:53;;;;;;;0.50;0.50;;;-0.50;70.60;;;;;;5059758;28;20435;-70
2022/03/13 06:18:41;;;;;;;0.50;0.50;;;-0.40;70.20;;;;;;5060708;28;20421;-70
2022/03/13 06:21:28;;;;;;;0.70;0.70;;;-0.40;69.80;;;;;;5056554;28;20421;-68
2022/03/13 06:24:16;;;;;;;0.47;0.47;;;-0.30;69.90;;;;;;5061620;28;20933;-70
2022/03/13 06:27:04;;;;;;;0.50;0.50;;;-0.20;69.60;;;;;;5073845;28;20436;-69
2022/03/13 06:29:51;;;;;;;0.50;0.50;;;-0.10;69.10;;;;;;5074610;28;20434;-69
2022/03/13 06:32:37;;;;;;;0.50;0.50;;;0.00;68.20;;;;;;5068598;28;20448;-73
2022/03/13 06:35:26;;;;;;;0.60;0.60;;;0.10;67.50;;;;;;5067907;28;20474;-70
2022/03/13 06:38:13;;;;;;;0.50;0.50;;;0.20;66.70;;;;;;5067806;28;20436;-69
2022/03/13 06:41:00;;;;;;;0.50;0.50;;;0.40;66.20;;;;;;5066079;28;20429;-72
2022/03/13 06:43:47;;;;;;;3.40;1.63;;;0.50;65.70;;;;;;5067892;28;20479;-70
2022/03/13 06:46:34;;;;;;;0.40;0.40;;;0.60;65.90;;;;;;5065453;28;20506;-70
2022/03/13 06:49:21;;;;;;;0.50;0.50;;;0.70;64.90;;;;;;5065291;28;20508;-71
2022/03/13 06:52:10;;;;;;;0.80;0.80;;;0.80;64.40;;;;;;5064897;28;20440;-70
2022/03/13 06:54:57;;;;;;;0.50;0.50;;;0.90;64.10;;;;;;5062545;28;20447;-70
2022/03/13 06:57:44;;;;;;;0.50;0.50;;;1.00;63.90;;;;;;5060408;28;20471;-71
2022/03/13 07:00:31;;;;;;;0.77;0.77;;;1.10;63.10;;;;;;5056871;28;20429;-71
2022/03/13 07:03:18;;;;;;;0.50;0.50;;;1.20;62.70;;;;;;5038093;28;20437;-70
2022/03/13 07:06:05;;;;;;;0.80;0.80;;;1.40;62.70;;;;;;5037736;28;20465;-70
2022/03/13 07:08:55;;;;;;;0.60;0.60;;;1.50;61.70;;;;;;5037733;28;20437;-72
2022/03/13 07:11:45;;;;;;;0.50;0.50;;;1.60;61.40;;;;;;5036786;28;20479;-70
2022/03/13 07:14:33;;;;;;;0.60;0.60;;;1.70;61.30;;;;;;5036959;28;20438;-70
2022/03/13 07:17:20;;;;;;;0.50;0.50;;;1.80;60.60;;;;;;5036891;28;20436;-71
2022/03/13 07:20:08;;;;;;;0.50;0.50;;;1.90;60.50;;;;;;5037122;28;20441;-70
2022/03/13 07:22:55;;;;;;;0.90;0.90;;;2.00;60.30;;;;;;5038401;28;20449;-71
2022/03/13 07:25:43;;;;;;;0.50;0.50;;;2.10;60.20;;;;;;5038047;28;20468;-71
2022/03/13 07:28:30;;;;;;;0.50;0.50;;;2.20;60.20;;;;;;5037897;28;20422;-73
2022/03/13 07:31:17;;;;;;;0.70;0.70;;;2.40;59.80;;;;;;5037402;28;20440;-70
2022/03/13 07:34:04;;;;;;;0.70;0.70;;;2.40;59.00;;;;;;5036929;28;20432;-70
2022/03/13 07:36:51;;;;;;;0.50;0.50;;;2.50;58.70;;;;;;5036704;28;20839;-70
2022/03/13 07:39:39;;;;;;;0.73;0.73;;;2.60;58.00;;;;;;5036528;28;20457;-70
2022/03/13 07:42:27;;;;;;;0.60;0.60;;;2.80;57.80;;;;;;5035971;28;20864;-71
2022/03/13 07:45:14;;;;;;;0.80;0.80;;;2.90;57.00;;;;;;5035565;28;20465;-70
2022/03/13 07:48:01;;;;;;;0.60;0.60;;;2.90;56.90;;;;;;5036061;28;20428;-69
2022/03/13 07:50:48;;;;;;;0.60;0.60;;;3.10;57.00;;;;;;5035892;28;20934;-69
2022/03/13 07:53:35;;;;;;;1.10;1.07;;;3.20;57.20;;;;;;5035435;28;20507;-70
2022/03/13 07:56:23;;;;;;;0.70;0.70;;;3.30;57.10;;;;;;5037949;28;20429;-70
2022/03/13 07:59:11;;;;;;;1.13;1.13;;;3.40;56.80;;;;;;5054893;28;20427;-70
2022/03/13 08:01:58;;;;;;;1.70;1.70;;;3.40;56.80;;;;;;5054674;28;20444;-70
2022/03/13 08:04:45;;;;;;;0.50;0.50;;;3.50;56.60;;;;;;5054654;28;20443;-71
2022/03/13 08:07:32;;;;;;;1.23;1.13;;;3.60;56.60;;;;;;5054512;28;20935;-70
2022/03/13 08:10:20;;;;;;;0.73;0.73;;;3.70;56.10;;;;;;5054674;28;20428;-72
2022/03/13 08:13:07;;;;;;;0.50;0.50;;;3.80;55.00;;;;;;5090024;22;20490;-65
2022/03/13 08:15:55;;;;;;;0.40;0.40;;;4.00;55.00;;;;;;5076371;28;20850;-65
2022/03/13 08:18:42;;;;;;;1.73;1.17;;;4.10;54.80;;;;;;5076889;28;20427;-65
2022/03/13 08:21:29;;;;;;;0.50;0.50;;;4.20;54.30;;;;;;5075901;28;20427;-66
2022/03/13 08:24:17;;;;;;;0.50;0.50;;;4.40;53.50;;;;;;5056931;28;20420;-69
2022/03/13 08:27:04;;;;;;;0.40;0.40;;;4.50;52.80;;;;;;5066131;28;20464;-66
2022/03/13 08:29:51;;;;;;;0.40;0.40;;;4.70;52.90;;;;;;5057880;28;20425;-66
2022/03/13 08:32:40;;;;;;;0.40;0.40;;;4.70;52.50;;;;;;5050600;28;20440;-66
2022/03/13 08:35:28;;;;;;;0.50;0.50;;;4.90;51.90;;;;;;5058781;28;20841;-65
2022/03/13 08:38:16;;;;;;;1.27;0.77;;;5.00;51.50;;;;;;5057494;28;20814;-66
2022/03/13 08:41:03;;;;;;;0.40;0.40;;;5.10;51.20;;;;;;5056677;28;20425;-66
2022/03/13 08:43:50;;;;;;;0.80;0.80;;;5.20;51.10;;;;;;5057696;28;20451;-66
2022/03/13 08:46:38;;;;;;;1.33;0.97;;;5.20;50.60;;;;;;5058476;28;20491;-66
2022/03/13 08:49:26;;;;;;;0.40;0.40;;;5.30;50.60;;;;;;5059144;28;20941;-66
2022/03/13 08:52:13;;;;;;;0.50;0.50;;;5.40;50.50;;;;;;5057285;28;20452;-65
2022/03/13 08:55:00;;;;;;;0.50;0.50;;;5.50;50.10;;;;;;5056675;28;20432;-66
2022/03/13 08:57:47;;;;;;;0.40;0.40;;;5.60;49.50;;;;;;5057804;28;20827;-66
2022/03/13 09:00:34;;;;;;;1.10;1.10;;;5.70;49.60;;;;;;5057185;28;20435;-65
2022/03/13 09:03:21;;;;;;;0.83;0.70;;;5.70;49.90;;;;;;5058805;28;20883;-66
2022/03/13 09:06:10;;;;;;;0.40;0.40;;;5.80;49.90;;;;;;5057356;28;20510;-65
2022/03/13 09:08:57;;;;;;;3.57;2.00;;;5.90;49.70;;;;;;5057144;28;20428;-66
2022/03/13 09:11:45;;;;;;;0.40;0.40;;;6.00;49.30;;;;;;5057148;28;20443;-66
2022/03/13 09:14:34;;;;;;;0.40;0.40;;;6.10;49.30;;;;;;5055521;28;20439;-65
2022/03/13 09:17:21;;;;;;;1.43;1.33;;;6.20;49.20;;;;;;5057251;28;20508;-65
2022/03/13 09:20:11;;;;;;;2.63;1.60;;;6.30;49.30;;;;;;5057079;28;20428;-64
2022/03/13 09:22:59;;;;;;;0.40;0.40;;;6.40;48.80;;;;;;5057624;28;20515;-65
2022/03/13 09:25:46;;;;;;;0.40;0.40;;;6.40;48.40;;;;;;5062792;28;20464;-66
2022/03/13 09:28:33;;;;;;;0.40;0.40;;;6.50;48.30;;;;;;5071471;28;20412;-64
2022/03/13 09:31:20;;;;;;;1.43;1.33;;;6.60;48.00;;;;;;5072830;28;20436;-65
2022/03/13 09:34:07;;;;;;;0.43;0.43;;;6.70;48.30;;;;;;5072531;28;20425;-65
2022/03/13 09:36:54;;;;;;;0.63;0.63;;;6.80;48.00;;;;;;5072412;28;20416;-66
2022/03/13 09:39:42;;;;;;;0.50;0.50;;;6.70;47.80;;;;;;5070449;28;20436;-65
2022/03/13 09:42:29;;;;;;;0.60;0.60;;;6.80;47.60;;;;;;5069916;28;20471;-65
2022/03/13 09:45:16;;;;;;;0.40;0.40;;;6.90;47.40;;;;;;5075351;28;20432;-64
2022/03/13 09:48:04;;;;;;;0.67;0.67;;;7.00;47.60;;;;;;5074859;28;20467;-66
2022/03/13 09:50:54;;;;;;;0.40;0.40;;;7.00;47.90;;;;;;5063905;28;20432;-66
2022/03/13 09:53:42;;;;;;;0.50;0.50;;;7.10;47.70;;;;;;5062810;28;20459;-69
2022/03/13 09:56:33;;;;;;;0.40;0.40;;;7.20;47.90;;;;;;5059109;28;20917;-66
2022/03/13 09:59:20;;;;;;;0.50;0.50;;;7.30;47.40;;;;;;5067029;28;20429;-65
2022/03/13 10:02:09;;;;;;;0.40;0.40;;;7.40;47.20;;;;;;5075028;28;20448;-64
2022/03/13 10:04:55;;;;;;;0.60;0.60;;;7.40;47.00;;;;;;5078024;28;20425;-71
2022/03/13 10:07:58;;;;;;;0.60;0.60;;;7.50;47.00;;;;;;5077603;28;20432;-64
2022/03/13 10:10:46;;;;;;;1.23;1.13;;;7.60;47.30;;;;;;5075389;28;20454;-65
2022/03/13 10:13:38;;;;;;;0.50;0.50;;;7.70;47.50;;;;;;5075722;28;20464;-64
2022/03/13 10:16:36;;;;;;;0.40;0.40;;;7.70;46.50;;;;;;5076536;28;20424;-66
2022/03/13 10:19:24;;;;;;;5.77;5.37;;;7.80;46.50;;;;;;5076660;28;20432;-64
2022/03/13 10:22:12;;;;;;;1.13;1.13;;;8.00;46.80;;;;;;5075320;28;20476;-65
2022/03/13 10:24:59;;;;;;;0.40;0.40;;;8.10;46.20;;;;;;5078016;28;20451;-64
2022/03/13 10:27:46;;;;;;;0.70;0.70;;;8.20;46.00;;;;;;5077795;28;20428;-65
2022/03/13 10:30:34;;;;;;;0.43;0.43;;;8.20;46.90;;;;;;5076827;28;20428;-64
2022/03/13 10:33:21;;;;;;;0.40;0.40;;;8.30;46.80;;;;;;5078171;28;20449;-63
2022/03/13 10:36:09;;;;;;;0.50;0.50;;;8.40;46.90;;;;;;5077027;28;20453;-65
2022/03/13 10:38:56;;;;;;;0.40;0.40;;;8.30;46.60;;;;;;5076672;28;20440;-65
2022/03/13 10:41:46;;;;;;;0.60;0.60;;;8.50;46.30;;;;;;5074187;28;20462;-64
2022/03/13 10:44:35;;;;;;;1.37;1.27;;;8.60;45.90;;;;;;5076667;28;20420;-64
2022/03/13 10:47:26;;;;;;;1.33;1.33;;;8.60;45.40;;;;;;5075552;28;20623;-65
2022/03/13 10:50:17;;;;;;;3.43;2.60;;;8.80;45.40;;;;;;5076287;28;20432;-63
2022/03/13 10:53:11;;;;;;;0.40;0.40;;;8.80;44.60;;;;;;5075256;28;20455;-65
2022/03/13 10:56:02;;;;;;;0.77;0.77;;;8.90;44.50;;;;;;5073778;28;20411;-65
2022/03/13 10:58:49;;;;;;;0.50;0.50;;;8.90;44.30;;;;;;5075425;28;20433;-66
2022/03/13 11:01:36;;;;;;;0.40;0.40;;;9.00;43.60;;;;;;5073158;28;20444;-69
2022/03/13 11:04:25;;;;;;;0.47;0.47;;;9.00;43.60;;;;;;5073437;28;20438;-68
2022/03/13 11:07:12;;;;;;;0.50;0.50;;;9.20;43.30;;;;;;5073054;28;20911;-65
2022/03/13 11:09:59;;;;;;;0.70;0.70;;;9.30;42.10;;;;;;5072576;28;20787;-64
2022/03/13 11:12:48;;;;;;;0.40;0.40;;;9.30;42.00;;;;;;5075831;28;20471;-66
2022/03/13 11:15:35;;;;;;;49.20;15.80;;;9.40;41.00;;;;;;5076564;28;20456;-64
2022/03/13 11:18:26;;;;;;;0.40;0.40;;;9.50;41.70;;;;;;5073529;28;20428;-65
2022/03/13 11:21:14;;;;;;;0.40;0.40;;;9.50;42.00;;;;;;5077875;28;20447;-66
2022/03/13 11:24:01;;;;;;;1.33;1.23;;;9.60;42.70;;;;;;5077271;28;20491;-65
2022/03/13 11:26:49;;;;;;;0.60;0.60;;;9.70;41.40;;;;;;5074364;28;20464;-66
2022/03/13 11:29:42;;;;;;;0.60;0.60;;;9.80;41.50;;;;;;5074632;28;20479;-65
2022/03/13 11:32:35;;;;;;;8.43;0.83;;;9.90;40.30;;;;;;5074933;28;20463;-65
2022/03/13 11:35:40;;;;;;;0.60;0.60;;;9.90;39.80;;;;;;5073267;28;20740;-66
2022/03/13 11:38:28;;;;;;;0.40;0.40;;;10.00;39.20;;;;;;5070446;28;20467;-65
2022/03/13 11:41:34;;;;;;;0.40;0.40;;;10.00;38.70;;;;;;5074046;28;20435;-65
2022/03/13 11:44:38;;;;;;;1.97;1.87;;;10.00;38.70;;;;;;5073624;28;20428;-64
2022/03/13 11:47:26;;;;;;;0.50;0.50;;;10.10;38.90;;;;;;5071914;28;20464;-65
2022/03/13 11:50:17;;;;;;;0.40;0.40;;;10.10;39.20;;;;;;5073262;28;20438;-64
2022/03/13 11:53:16;;;;;;;0.40;0.40;;;10.20;39.20;;;;;;5073347;28;20475;-66
2022/03/13 11:56:06;;;;;;;0.40;0.40;;;10.30;39.60;;;;;;5073934;28;20439;-64
2022/03/13 11:58:55;;;;;;;0.50;0.50;;;10.30;39.50;;;;;;5052985;28;20467;-65
2022/03/13 12:01:43;;;;;;;0.40;0.40;;;10.40;39.30;;;;;;5045501;28;20619;-65
2022/03/13 12:04:29;;;;;;;0.40;0.40;;;10.50;39.10;;;;;;5042815;28;20432;-66
2022/03/13 12:07:27;;;;;;;1.70;1.60;;;10.50;39.40;;;;;;5038830;28;20491;-66
2022/03/13 12:10:30;;;;;;;0.40;0.40;;;10.60;39.50;;;;;;5039248;28;20426;-65
2022/03/13 12:13:20;;;;;;;3.33;0.70;;;10.60;38.70;;;;;;5038855;28;20457;-65
2022/03/13 12:16:17;;;;;;;0.40;0.40;;;10.70;38.70;;;;;;5039018;28;20953;-65
2022/03/13 12:19:05;;;;;;;0.40;0.40;;;10.80;37.90;;;;;;5038656;28;20426;-66
2022/03/13 12:21:52;;;;;;;0.40;0.40;;;10.80;37.40;;;;;;5038790;28;20429;-65
2022/03/13 12:24:39;;;;;;;1.17;1.07;;;10.90;37.80;;;;;;5039296;28;20456;-65
2022/03/13 12:27:27;;;;;;;0.40;0.40;;;10.90;37.90;;;;;;5038945;28;20825;-64
2022/03/13 12:30:24;;;;;;;0.40;0.40;;;10.90;37.70;;;;;;5038643;28;20969;-65
2022/03/13 12:33:14;;;;;;;0.40;0.40;;;11.00;37.50;;;;;;5040026;28;20605;-65
2022/03/13 12:36:02;;;;;;;0.40;0.40;;;11.10;37.70;;;;;;5039594;28;20432;-65
2022/03/13 12:38:51;;;;;;;0.40;0.40;;;11.10;37.80;;;;;;5039277;28;20484;-65
2022/03/13 12:41:39;;;;;;;1.83;1.17;;;11.20;37.70;;;;;;5038728;28;20500;-65
2022/03/13 12:44:27;;;;;;;0.40;0.40;;;11.30;38.00;;;;;;5038523;28;20428;-64
2022/03/13 12:47:26;;;;;;;2.47;1.27;;;11.30;38.40;;;;;;5039391;28;20477;-66
2022/03/13 12:50:14;;;;;;;0.50;0.50;;;11.30;38.60;;;;;;5038814;28;20587;-65
2022/03/13 12:53:03;;;;;;;0.60;0.60;;;11.40;39.00;;;;;;5040798;28;20456;-65
2022/03/13 12:55:52;;;;;;;0.40;0.40;;;11.50;38.90;;;;;;5038035;28;20436;-65
2022/03/13 12:58:43;;;;;;;0.40;0.40;;;11.60;39.40;;;;;;5058755;28;20423;-65
2022/03/13 13:01:30;;;;;;;0.80;0.70;;;11.60;39.40;;;;;;5058871;28;20440;-66
2022/03/13 13:04:20;;;;;;;0.40;0.40;;;11.60;38.90;;;;;;5059574;28;20420;-66
2022/03/13 13:07:09;;;;;;;0.40;0.40;;;11.80;38.90;;;;;;5059675;28;20463;-65
2022/03/13 13:09:57;;;;;;;0.40;0.40;;;11.90;38.70;;;;;;5059456;28;20429;-67
2022/03/13 13:12:44;;;;;;;0.57;0.57;;;12.10;38.70;;;;;;5051463;28;21021;-66
2022/03/13 13:15:34;;;;;;;0.93;0.93;;;12.30;38.80;;;;;;5059805;28;20201;-66
2022/03/13 13:18:21;;;;;;;0.40;0.40;;;12.60;39.10;;;;;;5059546;28;20803;-66
2022/03/13 13:21:12;;;;;;;1.90;1.80;;;12.90;38.20;;;;;;5066713;28;20424;-66
2022/03/13 13:23:59;;;;;;;0.40;0.40;;;13.10;37.20;;;;;;5072932;28;20272;-65
2022/03/13 13:26:45;;;;;;;0.40;0.40;;;13.30;37.80;;;;;;5075181;28;20244;-65
2022/03/13 13:29:33;;;;;;;0.40;0.40;;;13.90;37.50;;;;;;5075745;28;20425;-73
2022/03/13 13:32:22;;;;;;;0.40;0.40;;;14.30;36.80;;;;;;5075785;28;20226;-65
2022/03/13 13:35:10;;;;;;;0.60;0.60;;;14.80;36.70;;;;;;5074458;28;20202;-64
2022/03/13 13:38:08;;;;;;;2.50;1.25;;;15.70;36.40;;;;;;5074416;28;20201;-66
2022/03/13 13:41:01;;;;;;;0.40;0.40;;;16.40;35.70;;;;;;5076388;28;20205;-65
2022/03/13 13:43:47;;;;;;;0.40;0.40;;;17.10;35.40;;;;;;5074998;28;20248;-66
2022/03/13 13:46:35;;;;;;;3.45;1.02;;;17.60;35.00;;;;;;5068607;28;20221;-65
2022/03/13 13:49:26;;;;;;;0.40;0.40;;;18.40;34.40;;;;;;5075614;28;20217;-65
2022/03/13 13:52:13;;;;;;;0.40;0.40;;;19.40;34.50;;;;;;5074642;28;20225;-65
2022/03/13 13:55:20;;;;;;;0.40;0.40;;;21.00;33.20;;;;;;5076011;28;20510;-66
2022/03/13 13:58:28;;;;;;;0.40;0.40;;;22.20;32.30;;;;;;5073912;28;20202;-66
2022/03/13 14:01:26;;;;;;;0.40;0.40;;;22.90;31.70;;;;;;5073269;28;20200;-66
2022/03/13 14:04:13;;;;;;;12.80;9.80;;;23.40;31.60;;;;;;5069720;28;20225;-67
2022/03/13 14:07:01;;;;;;;0.70;0.70;;;24.20;32.20;;;;;;5067516;28;20209;-66
2022/03/13 14:09:47;;;;;;;0.52;0.52;;;24.50;32.40;;;;;;5067061;28;20259;-69
2022/03/13 14:12:36;;;;;;;2.35;2.25;;;23.80;30.80;;;;;;5079223;22;20234;-77
2022/03/13 14:15:23;;;;;;;0.77;0.77;;;23.10;31.30;;;;;;5056283;28;20206;-74
2022/03/13 14:18:10;;;;;;;0.50;0.50;;;21.80;31.40;;;;;;5056255;28;20201;-72
2022/03/13 14:20:57;;;;;;;1.63;1.52;;;21.50;31.60;;;;;;5056030;28;20210;-75
2022/03/13 14:23:44;;;;;;;0.95;0.95;;;21.40;32.00;;;;;;5054694;28;20222;-73
2022/03/13 14:26:31;;;;;;;0.95;0.93;;;21.10;32.30;;;;;;5054876;28;20206;-75
2022/03/13 14:29:21;;;;;;;1.10;1.10;;;20.70;31.90;;;;;;5054373;28;20206;-75
2022/03/13 14:32:08;;;;;;;0.70;0.70;;;21.10;31.10;;;;;;5055029;28;20202;-74
2022/03/13 14:34:55;;;;;;;2.75;2.58;;;22.60;31.20;;;;;;5056246;28;20198;-76
2022/03/13 14:37:42;;;;;;;1.10;0.60;;;23.40;30.00;;;;;;5055325;28;20219;-75
2022/03/13 14:40:29;;;;;;;1.85;1.75;;;24.00;29.40;;;;;;5055203;28;20201;-74
2022/03/13 14:43:18;;;;;;;0.90;0.90;;;24.80;29.30;;;;;;5054419;28;20222;-73